Time;durP1;ratioP1;P1;durP2;ratioP2;P2;SDS_P1;SDS_P2;PMS_P1;PMS_P2;Temp;Humidity;BMP_temperature;BMP_pressure;BME280_temperature;BME280_humidity;BME280_pressure;Samples;Min_cycle;Max_cycle;Signal;HPM_P1;HPM_P2
2022/07/20 00:00:21;;;;;;;6.05;2.15;;;25.50;52.10;;;;;;4132375;28;20093;-81
2022/07/20 00:02:22;;;;;;;7.35;2.35;;;25.50;52.10;;;;;;4129827;28;20050;-82
2022/07/20 00:04:23;;;;;;;6.90;2.60;;;25.50;52.10;;;;;;4121431;28;20062;-83
2022/07/20 00:06:23;;;;;;;4.28;2.03;;;25.50;52.10;;;;;;4130085;28;20038;-82
2022/07/20 00:13:03;;;;;;;5.93;2.30;;;25.40;52.00;;;;;;4131273;28;20088;-82
2022/07/20 00:15:04;;;;;;;3.65;1.73;;;25.40;52.30;;;;;;4132898;28;20038;-82
2022/07/20 00:17:05;;;;;;;7.30;2.42;;;25.40;52.30;;;;;;4131620;28;20113;-82
2022/07/20 00:19:07;;;;;;;10.45;2.53;;;25.30;52.10;;;;;;4131727;28;20066;-82
2022/07/20 00:21:07;;;;;;;6.43;2.08;;;25.30;52.10;;;;;;4132129;28;20043;-83
2022/07/20 00:23:09;;;;;;;8.23;2.38;;;25.30;52.00;;;;;;4126790;28;20045;-82
2022/07/20 00:25:11;;;;;;;8.18;2.28;;;25.30;51.80;;;;;;4131767;28;20448;-83
2022/07/20 00:27:11;;;;;;;8.30;2.20;;;25.30;51.80;;;;;;4128923;28;20042;-82
2022/07/20 00:29:12;;;;;;;6.53;2.20;;;25.20;51.70;;;;;;4127609;28;20049;-82
2022/07/20 00:31:14;;;;;;;5.90;2.42;;;25.30;51.60;;;;;;4129267;28;20396;-82
2022/07/20 00:33:14;;;;;;;5.15;2.08;;;25.30;51.60;;;;;;4129771;28;20049;-82
2022/07/20 00:35:16;;;;;;;5.75;2.42;;;25.30;51.60;;;;;;4131122;28;20470;-82
2022/07/20 00:37:17;;;;;;;3.92;2.05;;;25.30;51.50;;;;;;4132366;28;20104;-82
2022/07/20 00:39:17;;;;;;;4.28;2.03;;;25.30;51.80;;;;;;4132401;28;20125;-82
2022/07/20 00:41:18;;;;;;;4.22;1.90;;;25.20;51.50;;;;;;4112563;28;20051;-82
2022/07/20 00:43:19;;;;;;;9.25;3.00;;;25.10;51.40;;;;;;4131218;28;20122;-82
2022/07/20 00:45:19;;;;;;;9.70;2.45;;;25.10;51.40;;;;;;4131929;28;20085;-82
2022/07/20 00:47:21;;;;;;;6.93;1.88;;;25.10;51.50;;;;;;4129807;28;20093;-82
2022/07/20 00:49:22;;;;;;;6.47;2.10;;;25.10;51.40;;;;;;4143207;28;20050;-82
2022/07/20 00:51:24;;;;;;;5.85;2.47;;;25.10;51.40;;;;;;4126903;28;20034;-82
2022/07/20 00:53:25;;;;;;;8.85;2.90;;;25.00;51.30;;;;;;4139909;28;20494;-82
2022/07/20 00:55:26;;;;;;;6.03;2.38;;;25.00;51.40;;;;;;4129781;28;20046;-82
2022/07/20 00:57:30;;;;;;;6.05;2.85;;;25.00;51.40;;;;;;4132043;28;20498;-81
2022/07/20 00:59:32;;;;;;;3.92;2.00;;;24.90;51.30;;;;;;4131056;28;20050;-81
2022/07/20 01:01:33;;;;;;;4.45;2.30;;;24.90;51.40;;;;;;4132407;28;20046;-82
2022/07/20 01:03:36;;;;;;;8.73;2.42;;;24.90;51.40;;;;;;4133022;28;20054;-81
2022/07/20 01:05:36;;;;;;;5.75;2.17;;;24.90;51.40;;;;;;4147097;28;20120;-80
2022/07/20 01:07:37;;;;;;;4.03;3.05;;;24.90;51.50;;;;;;4122593;28;20054;-81
2022/07/20 01:09:38;;;;;;;6.57;2.38;;;24.80;51.50;;;;;;4130042;28;20047;-82
2022/07/20 01:11:40;;;;;;;5.93;2.08;;;24.80;51.50;;;;;;4130001;28;20156;-82
2022/07/20 01:13:40;;;;;;;5.90;2.53;;;24.80;51.60;;;;;;4132018;28;20499;-82
2022/07/20 01:15:41;;;;;;;8.88;2.50;;;24.80;51.70;;;;;;4124196;28;20038;-82
2022/07/20 01:17:44;;;;;;;13.23;2.55;;;24.70;51.80;;;;;;4128484;28;20042;-82
2022/07/20 01:19:44;;;;;;;8.70;2.20;;;24.70;51.90;;;;;;4112870;28;20047;-81
2022/07/20 01:21:45;;;;;;;3.20;1.98;;;24.60;51.90;;;;;;4128487;28;20474;-81
2022/07/20 01:23:47;;;;;;;6.78;2.35;;;24.60;52.00;;;;;;4128878;28;20069;-81
2022/07/20 01:25:47;;;;;;;8.73;2.70;;;24.60;52.10;;;;;;4127687;28;20131;-81
2022/07/20 01:27:49;;;;;;;6.13;2.10;;;24.50;52.20;;;;;;4130588;28;20046;-82
2022/07/20 01:29:50;;;;;;;4.95;2.40;;;24.50;52.60;;;;;;4129996;28;20074;-81
2022/07/20 01:31:50;;;;;;;5.22;2.45;;;24.40;52.70;;;;;;4127794;28;20046;-82
2022/07/20 01:33:52;;;;;;;4.45;2.38;;;24.40;52.70;;;;;;4118820;28;20038;-82
2022/07/20 01:35:53;;;;;;;8.38;2.17;;;24.40;53.00;;;;;;4120219;28;20042;-81
2022/07/20 01:37:53;;;;;;;4.63;1.90;;;24.40;53.40;;;;;;4119946;28;20550;-82
2022/07/20 01:39:54;;;;;;;3.75;2.33;;;24.30;53.50;;;;;;4119124;28;20050;-82
2022/07/20 01:41:55;;;;;;;5.38;2.17;;;24.30;53.40;;;;;;4129088;28;20063;-82
2022/07/20 01:43:55;;;;;;;3.53;1.80;;;24.30;53.50;;;;;;4119338;28;20513;-81
2022/07/20 01:45:56;;;;;;;7.30;2.80;;;24.20;53.70;;;;;;4128123;28;20051;-82
2022/07/20 01:47:57;;;;;;;7.90;2.15;;;24.10;54.00;;;;;;4110857;28;20078;-82
2022/07/20 01:49:58;;;;;;;7.15;2.75;;;24.10;54.10;;;;;;4102850;28;20045;-81
2022/07/20 01:52:00;;;;;;;6.85;2.25;;;24.10;54.30;;;;;;4117766;28;20602;-81
2022/07/20 01:54:01;;;;;;;3.70;2.45;;;24.00;55.40;;;;;;4128620;28;20585;-81
2022/07/20 01:56:02;;;;;;;5.18;2.30;;;24.00;55.10;;;;;;4119536;28;20038;-82
2022/07/20 01:58:04;;;;;;;5.70;2.00;;;24.00;55.00;;;;;;4119672;28;20046;-81
2022/07/20 02:00:07;;;;;;;5.80;1.88;;;23.90;55.30;;;;;;4116408;28;20054;-82
2022/07/20 02:02:07;;;;;;;11.35;3.92;;;23.90;55.50;;;;;;4128184;28;20065;-81
2022/07/20 02:04:09;;;;;;;4.25;1.90;;;23.90;56.10;;;;;;4128480;28;20038;-81
2022/07/20 02:06:11;;;;;;;7.00;2.10;;;23.80;55.90;;;;;;4119239;28;20093;-82
2022/07/20 02:08:12;;;;;;;5.25;2.25;;;23.80;55.90;;;;;;4119414;28;20070;-82
2022/07/20 02:10:15;;;;;;;5.97;2.08;;;23.70;55.80;;;;;;4127526;28;20041;-82
2022/07/20 02:12:15;;;;;;;8.02;2.60;;;23.70;55.80;;;;;;4119587;28;20042;-82
2022/07/20 02:14:17;;;;;;;6.75;2.70;;;23.60;56.00;;;;;;4120928;28;20038;-82
2022/07/20 02:16:18;;;;;;;5.25;2.13;;;23.60;56.00;;;;;;4119475;28;20038;-82
2022/07/20 02:18:18;;;;;;;8.65;2.03;;;23.50;55.90;;;;;;4119236;28;20442;-82
2022/07/20 02:20:20;;;;;;;6.47;2.22;;;23.50;56.00;;;;;;4102486;28;20050;-82
2022/07/20 02:22:21;;;;;;;5.68;2.30;;;23.50;55.90;;;;;;4122129;28;20099;-82
2022/07/20 02:24:21;;;;;;;7.18;2.72;;;23.50;55.80;;;;;;4110152;28;20058;-82
2022/07/20 02:26:23;;;;;;;4.60;2.17;;;23.40;55.70;;;;;;4119270;28;20384;-83
2022/07/20 02:28:23;;;;;;;4.30;2.00;;;23.40;55.80;;;;;;4119562;28;20539;-82
2022/07/20 02:30:25;;;;;;;4.15;2.30;;;23.40;56.40;;;;;;4118877;28;20039;-82
2022/07/20 02:32:26;;;;;;;5.15;1.90;;;23.30;56.20;;;;;;4129452;28;20124;-82
2022/07/20 02:34:27;;;;;;;5.15;2.40;;;23.30;56.20;;;;;;4102147;28;20051;-82
2022/07/20 02:36:27;;;;;;;4.93;1.80;;;23.30;56.50;;;;;;4119293;28;20126;-83
2022/07/20 02:38:28;;;;;;;10.82;2.33;;;23.20;56.40;;;;;;4119146;28;20113;-82
2022/07/20 02:40:29;;;;;;;5.82;2.53;;;23.20;56.80;;;;;;4119303;28;20058;-83
2022/07/20 02:42:30;;;;;;;6.05;2.10;;;23.20;56.80;;;;;;4134330;28;20050;-82
2022/07/20 02:44:30;;;;;;;7.13;2.53;;;23.10;56.90;;;;;;4113707;28;20059;-82
2022/07/20 02:46:31;;;;;;;5.55;2.20;;;23.10;57.00;;;;;;4125915;28;20042;-80
2022/07/20 02:48:33;;;;;;;3.55;2.13;;;23.10;57.30;;;;;;4126406;28;20444;-82
2022/07/20 02:50:37;;;;;;;10.93;2.53;;;23.00;57.30;;;;;;4127737;28;20112;-83
2022/07/20 02:52:40;;;;;;;5.25;1.90;;;23.00;57.40;;;;;;4126421;28;20062;-80
2022/07/20 02:54:41;;;;;;;4.53;2.25;;;23.00;57.40;;;;;;4119158;28;20066;-84
2022/07/20 02:56:41;;;;;;;7.63;2.95;;;22.90;57.40;;;;;;4119147;28;20046;-83
2022/07/20 02:58:42;;;;;;;6.25;2.20;;;22.90;57.40;;;;;;4126685;28;20415;-84
2022/07/20 03:00:43;;;;;;;8.15;2.63;;;22.90;57.70;;;;;;4133754;28;20096;-84
2022/07/20 03:02:44;;;;;;;7.05;2.33;;;22.80;57.70;;;;;;4118404;28;20039;-84
2022/07/20 03:04:44;;;;;;;7.88;2.72;;;22.80;58.00;;;;;;4126020;28;20471;-84
2022/07/20 03:06:46;;;;;;;5.90;2.08;;;22.80;58.00;;;;;;4118502;28;20046;-84
2022/07/20 03:08:47;;;;;;;7.95;2.30;;;22.80;58.00;;;;;;4133477;28;20046;-84
2022/07/20 03:10:47;;;;;;;5.53;2.00;;;22.80;58.00;;;;;;4129761;28;20049;-84
2022/07/20 03:12:48;;;;;;;7.13;2.15;;;22.70;58.10;;;;;;4126045;28;20082;-84
2022/07/20 03:14:49;;;;;;;4.95;2.55;;;22.70;58.10;;;;;;4128945;28;20046;-84
2022/07/20 03:16:51;;;;;;;9.88;2.38;;;22.70;58.30;;;;;;4129718;28;20081;-84
2022/07/20 03:18:53;;;;;;;4.13;2.53;;;22.70;58.50;;;;;;4120053;28;20053;-84
2022/07/20 03:20:54;;;;;;;5.95;2.33;;;22.70;58.50;;;;;;4127025;28;20043;-84
2022/07/20 03:22:55;;;;;;;3.72;2.45;;;22.60;59.30;;;;;;4126569;28;20046;-84
2022/07/20 03:24:56;;;;;;;4.32;1.88;;;22.60;58.70;;;;;;4129818;28;20140;-84
2022/07/20 03:26:58;;;;;;;6.93;2.38;;;22.60;59.30;;;;;;4126134;28;20456;-84
2022/07/20 03:28:58;;;;;;;4.13;2.17;;;22.60;59.30;;;;;;4109198;28;20101;-84
2022/07/20 03:31:00;;;;;;;6.97;2.15;;;22.60;59.30;;;;;;4129541;28;20042;-84
2022/07/20 03:33:02;;;;;;;4.88;2.50;;;22.60;59.40;;;;;;4118371;28;20051;-84
2022/07/20 03:35:03;;;;;;;7.78;2.17;;;22.50;59.40;;;;;;4138922;28;20053;-81
2022/07/20 03:37:04;;;;;;;4.78;2.05;;;22.50;59.60;;;;;;4118884;28;20516;-83
2022/07/20 03:39:04;;;;;;;6.93;2.53;;;22.50;59.70;;;;;;4118322;28;20082;-83
2022/07/20 03:41:07;;;;;;;12.65;2.47;;;22.50;59.80;;;;;;4122030;28;20098;-83
2022/07/20 03:43:08;;;;;;;7.63;2.42;;;22.40;59.70;;;;;;4127999;28;20044;-84
2022/07/20 03:45:09;;;;;;;7.80;2.20;;;22.40;59.70;;;;;;4132653;28;20122;-83
2022/07/20 03:47:10;;;;;;;6.40;2.15;;;22.40;59.90;;;;;;4122848;28;20126;-84
2022/07/20 03:49:10;;;;;;;6.93;2.92;;;22.40;60.10;;;;;;4125333;28;20046;-83
2022/07/20 03:51:11;;;;;;;4.43;2.33;;;22.40;60.60;;;;;;4119464;28;20049;-83
2022/07/20 03:53:13;;;;;;;4.50;1.92;;;22.40;60.50;;;;;;4126383;28;20125;-84
2022/07/20 03:55:14;;;;;;;3.38;2.00;;;22.30;60.60;;;;;;4123607;28;20454;-84
2022/07/20 03:57:15;;;;;;;7.32;2.60;;;22.30;60.70;;;;;;4161109;28;20049;-83
2022/07/20 03:59:15;;;;;;;5.85;2.40;;;22.30;60.80;;;;;;4134437;28;20050;-83
2022/07/20 04:01:16;;;;;;;6.15;2.50;;;22.20;60.60;;;;;;4103937;28;20256;-84
2022/07/20 04:03:17;;;;;;;4.45;2.30;;;22.20;60.70;;;;;;4130720;28;20140;-84
2022/07/20 04:05:18;;;;;;;6.20;3.30;;;22.10;60.70;;;;;;4088386;28;20087;-84
2022/07/20 04:07:18;;;;;;;7.80;2.70;;;22.10;60.70;;;;;;4104408;28;20043;-84
2022/07/20 04:10:05;;;;;;;4.38;2.22;;;22.10;60.70;;;;;;4132251;28;20058;-84
2022/07/20 04:11:42;;;;;;;8.30;2.88;;;22.10;60.50;;;;;;4101152;28;20113;-84
2022/07/20 04:13:43;;;;;;;7.80;2.22;;;22.10;60.10;;;;;;4132481;28;20133;-84
2022/07/20 04:15:44;;;;;;;11.02;2.28;;;22.10;60.00;;;;;;4103977;28;20051;-84
2022/07/20 04:17:44;;;;;;;5.63;2.20;;;22.20;59.70;;;;;;4135697;28;20060;-84
2022/07/20 04:19:46;;;;;;;4.28;2.50;;;22.20;59.50;;;;;;4120394;28;20051;-84
2022/07/20 04:21:46;;;;;;;6.28;2.58;;;22.20;59.30;;;;;;4136324;28;20038;-84
2022/07/20 04:23:47;;;;;;;6.45;2.40;;;22.20;59.10;;;;;;4129854;28;20050;-84
2022/07/20 04:25:48;;;;;;;5.55;2.10;;;22.20;58.90;;;;;;4128658;28;20410;-84
2022/07/20 04:27:52;;;;;;;6.72;2.60;;;22.30;58.90;;;;;;4135960;28;20125;-82
2022/07/20 04:29:53;;;;;;;3.47;2.33;;;22.30;58.80;;;;;;4135292;28;20050;-84
2022/07/20 04:31:54;;;;;;;5.65;2.40;;;22.30;58.60;;;;;;4121227;28;20049;-84
2022/07/20 04:33:55;;;;;;;4.38;2.10;;;22.30;58.50;;;;;;4135790;28;20582;-84
2022/07/20 04:35:55;;;;;;;7.07;2.33;;;22.40;58.50;;;;;;4120769;28;20089;-84
2022/07/20 04:37:56;;;;;;;4.70;2.08;;;22.40;58.40;;;;;;4120796;28;20114;-84
2022/07/20 04:39:57;;;;;;;4.13;2.33;;;22.40;58.30;;;;;;4128587;28;20060;-84
2022/07/20 04:41:58;;;;;;;5.78;2.92;;;22.50;58.20;;;;;;4131820;28;20108;-81
2022/07/20 04:43:59;;;;;;;5.25;2.25;;;22.50;58.10;;;;;;4120213;28;20047;-81
2022/07/20 04:46:01;;;;;;;9.77;2.50;;;22.50;58.00;;;;;;4134935;28;20058;-81
2022/07/20 04:48:03;;;;;;;5.65;2.17;;;22.50;58.00;;;;;;4119962;28;20038;-81
2022/07/20 04:50:04;;;;;;;10.80;2.55;;;22.60;58.00;;;;;;4103693;28;20534;-81
2022/07/20 04:52:05;;;;;;;10.60;2.45;;;22.60;58.00;;;;;;4142069;28;20077;-81
2022/07/20 04:54:06;;;;;;;6.97;2.72;;;22.60;58.00;;;;;;4119943;28;20510;-81
2022/07/20 04:56:09;;;;;;;4.75;2.47;;;22.60;57.90;;;;;;4119686;28;20047;-81
2022/07/20 04:58:10;;;;;;;7.75;2.20;;;22.60;58.00;;;;;;4127324;28;20042;-82
2022/07/20 05:00:11;;;;;;;5.78;3.03;;;22.70;58.10;;;;;;4119867;28;20483;-81
2022/07/20 05:02:12;;;;;;;6.45;2.45;;;22.70;58.10;;;;;;4131549;28;20046;-81
2022/07/20 05:04:13;;;;;;;5.47;2.40;;;22.70;58.10;;;;;;4127072;28;20046;-82
2022/07/20 05:06:14;;;;;;;8.05;2.40;;;22.70;58.00;;;;;;4127331;28;20051;-81
2022/07/20 05:08:14;;;;;;;6.78;2.65;;;22.80;57.90;;;;;;4119620;28;20039;-81
2022/07/20 05:10:15;;;;;;;5.30;2.30;;;22.80;57.80;;;;;;4119942;28;20113;-82
2022/07/20 05:12:16;;;;;;;5.03;2.50;;;22.80;57.70;;;;;;4127326;28;20042;-81
2022/07/20 05:14:17;;;;;;;6.00;2.45;;;22.90;57.50;;;;;;4119950;28;20045;-81
2022/07/20 05:16:18;;;;;;;7.25;2.83;;;22.90;57.50;;;;;;4120133;28;20053;-81
2022/07/20 05:18:19;;;;;;;5.60;2.35;;;22.90;57.50;;;;;;4127654;28;20050;-81
2022/07/20 05:20:20;;;;;;;5.38;2.35;;;22.90;57.40;;;;;;4127270;28;20042;-81
2022/07/20 05:22:22;;;;;;;9.55;2.65;;;23.00;57.40;;;;;;4119465;28;20384;-81
2022/07/20 05:24:23;;;;;;;5.47;2.30;;;23.00;57.40;;;;;;4119655;28;20415;-81
2022/07/20 05:26:24;;;;;;;10.40;2.58;;;23.00;57.20;;;;;;4120012;28;20043;-81
2022/07/20 05:28:25;;;;;;;4.80;2.78;;;23.10;57.20;;;;;;4120114;28;20057;-81
2022/07/20 05:30:26;;;;;;;6.85;2.50;;;23.10;57.10;;;;;;4134909;28;20134;-81
2022/07/20 05:32:27;;;;;;;9.82;3.00;;;23.10;57.20;;;;;;4130457;28;20050;-81
2022/07/20 05:34:27;;;;;;;8.25;2.67;;;23.20;57.30;;;;;;4131322;28;20038;-81
2022/07/20 05:36:28;;;;;;;6.55;2.13;;;23.20;57.20;;;;;;4120029;28;20063;-81
2022/07/20 05:38:29;;;;;;;8.57;2.75;;;23.20;57.20;;;;;;4130723;28;20062;-82
2022/07/20 05:40:30;;;;;;;4.53;2.55;;;23.30;57.30;;;;;;4128414;28;20050;-81
2022/07/20 05:42:30;;;;;;;8.98;2.45;;;23.30;57.20;;;;;;4120303;28;20039;-81
2022/07/20 05:44:31;;;;;;;5.57;2.60;;;23.30;57.30;;;;;;4128135;28;20042;-81
2022/07/20 05:46:32;;;;;;;4.13;2.83;;;23.40;57.30;;;;;;4119440;28;20111;-81
2022/07/20 05:48:33;;;;;;;9.43;2.70;;;23.40;57.30;;;;;;4120358;28;20046;-81
2022/07/20 05:50:33;;;;;;;7.30;2.75;;;23.40;57.50;;;;;;4120001;28;20046;-81
2022/07/20 05:52:34;;;;;;;4.28;2.58;;;23.50;57.80;;;;;;4120191;28;20078;-81
2022/07/20 05:54:35;;;;;;;6.18;2.60;;;23.50;57.80;;;;;;4119909;28;20546;-80
2022/07/20 05:56:36;;;;;;;10.00;2.75;;;23.60;57.70;;;;;;4120375;28;20396;-81
2022/07/20 05:58:37;;;;;;;8.88;3.80;;;23.60;57.60;;;;;;4120436;28;20073;-80
2022/07/20 06:00:38;;;;;;;7.13;2.70;;;23.70;57.70;;;;;;4127356;28;20038;-80
2022/07/20 06:02:39;;;;;;;4.55;2.33;;;23.70;57.90;;;;;;4132129;28;20069;-82
2022/07/20 06:04:40;;;;;;;7.10;2.90;;;23.80;57.90;;;;;;4131684;28;20046;-81
2022/07/20 06:06:42;;;;;;;7.00;2.50;;;23.80;57.90;;;;;;4136128;28;20061;-81
2022/07/20 06:08:42;;;;;;;5.05;2.38;;;23.80;58.10;;;;;;4120013;28;20043;-81
2022/07/20 06:10:43;;;;;;;5.82;2.83;;;23.90;58.20;;;;;;4117831;28;20051;-81
2022/07/20 06:12:44;;;;;;;10.82;2.60;;;23.90;58.30;;;;;;4127246;28;20050;-82
2022/07/20 06:14:44;;;;;;;6.47;2.63;;;24.00;58.40;;;;;;4131336;28;20129;-83
2022/07/20 06:16:45;;;;;;;7.60;3.00;;;24.00;58.50;;;;;;4125889;28;20121;-80
2022/07/20 06:18:46;;;;;;;4.18;3.10;;;24.10;58.60;;;;;;4127399;28;20062;-80
2022/07/20 06:20:47;;;;;;;6.80;2.60;;;24.20;58.60;;;;;;4127613;28;20078;-80
2022/07/20 06:22:48;;;;;;;4.32;2.72;;;24.20;58.60;;;;;;4129304;28;20113;-80
2022/07/20 06:24:48;;;;;;;9.75;3.25;;;24.30;58.60;;;;;;4129767;28;20050;-80
2022/07/20 06:26:49;;;;;;;5.55;2.58;;;24.40;58.50;;;;;;4129806;28;20053;-79
2022/07/20 06:28:51;;;;;;;6.70;2.88;;;24.40;58.50;;;;;;4129864;28;20068;-80
2022/07/20 06:30:52;;;;;;;8.95;2.75;;;24.50;58.50;;;;;;4130855;28;20042;-80
2022/07/20 06:32:52;;;;;;;11.02;2.70;;;24.60;58.40;;;;;;4131043;28;20117;-79
2022/07/20 06:34:53;;;;;;;9.48;3.47;;;24.70;58.40;;;;;;4123147;28;20034;-79
2022/07/20 06:36:54;;;;;;;6.78;3.00;;;24.80;58.40;;;;;;4129253;28;20463;-80
2022/07/20 06:38:55;;;;;;;6.32;3.65;;;24.90;58.60;;;;;;4125399;28;20113;-79
2022/07/20 06:40:55;;;;;;;6.93;2.85;;;24.90;58.50;;;;;;4127319;28;20542;-79
2022/07/20 06:42:56;;;;;;;7.35;3.20;;;25.00;58.30;;;;;;4139812;28;20038;-81
2022/07/20 06:44:58;;;;;;;9.50;3.20;;;25.10;58.10;;;;;;4126905;28;20202;-81
2022/07/20 06:47:00;;;;;;;5.13;2.78;;;25.30;58.00;;;;;;4109651;28;20046;-81
2022/07/20 06:49:01;;;;;;;5.93;2.28;;;25.40;57.50;;;;;;4129141;28;20050;-80
2022/07/20 06:51:03;;;;;;;8.27;2.60;;;25.50;56.40;;;;;;4129799;28;20046;-80
2022/07/20 06:53:04;;;;;;;4.30;2.92;;;25.70;56.00;;;;;;4122501;28;20385;-80
2022/07/20 06:55:05;;;;;;;8.70;2.55;;;25.80;55.40;;;;;;4126767;28;20105;-81
2022/07/20 06:57:06;;;;;;;9.30;3.13;;;25.90;54.80;;;;;;4129649;28;20053;-80
2022/07/20 06:59:07;;;;;;;7.57;3.25;;;26.10;54.40;;;;;;4141662;28;20049;-81
2022/07/20 07:01:08;;;;;;;11.10;3.10;;;26.20;54.20;;;;;;4121035;28;20050;-80
2022/07/20 07:03:08;;;;;;;4.45;2.78;;;26.30;54.20;;;;;;4120201;28;20121;-81
2022/07/20 07:05:10;;;;;;;6.32;2.53;;;26.40;53.80;;;;;;4126147;28;20057;-82
2022/07/20 07:07:11;;;;;;;6.50;2.80;;;26.40;53.20;;;;;;4126115;28;20074;-80
2022/07/20 07:09:13;;;;;;;5.15;2.47;;;26.50;52.80;;;;;;4126611;28;20084;-81
2022/07/20 07:11:14;;;;;;;5.32;3.15;;;26.60;52.80;;;;;;4131432;28;20022;-82
2022/07/20 07:13:15;;;;;;;16.10;4.40;;;26.60;52.60;;;;;;4128410;28;20039;-82
2022/07/20 07:15:17;;;;;;;4.65;2.92;;;26.70;52.70;;;;;;4131403;28;20450;-81
2022/07/20 07:17:18;;;;;;;4.80;2.47;;;26.80;52.40;;;;;;4135987;28;20487;-81
2022/07/20 07:19:19;;;;;;;11.23;3.38;;;26.90;52.70;;;;;;4147708;28;20042;-81
2022/07/20 07:21:26;;;;;;;13.07;2.92;;;26.90;52.50;;;;;;4135534;28;20554;-82
2022/07/20 07:23:27;;;;;;;6.05;2.97;;;27.10;52.30;;;;;;4137478;28;20042;-82
2022/07/20 07:25:29;;;;;;;5.85;3.00;;;27.10;52.40;;;;;;4137518;28;20101;-81
2022/07/20 07:27:31;;;;;;;12.05;3.00;;;27.10;52.10;;;;;;4134752;28;21096;-81
2022/07/20 07:29:33;;;;;;;10.02;2.83;;;27.20;52.20;;;;;;4137736;28;20050;-83
2022/07/20 07:31:34;;;;;;;7.40;3.00;;;27.30;52.10;;;;;;4137302;28;20044;-82
2022/07/20 07:33:36;;;;;;;10.40;3.22;;;27.40;51.90;;;;;;4135203;28;20129;-82
2022/07/20 07:35:37;;;;;;;8.98;3.10;;;27.40;52.20;;;;;;4134240;28;20057;-82
2022/07/20 07:37:39;;;;;;;7.43;3.42;;;27.50;52.00;;;;;;4133528;28;20050;-81
2022/07/20 07:39:41;;;;;;;7.50;2.97;;;27.40;51.80;;;;;;4134604;28;20065;-82
2022/07/20 07:41:42;;;;;;;9.27;3.70;;;27.60;52.10;;;;;;4134683;28;20461;-81
2022/07/20 07:43:44;;;;;;;7.90;3.40;;;27.70;52.10;;;;;;4101365;29;20051;-81
2022/07/20 07:45:47;;;;;;;8.80;3.65;;;27.70;51.70;;;;;;4137099;28;20061;-81
2022/07/20 07:47:48;;;;;;;7.78;3.67;;;27.70;51.60;;;;;;4134689;28;20125;-80
2022/07/20 07:49:49;;;;;;;5.50;3.33;;;27.70;51.80;;;;;;4134566;28;20534;-81
2022/07/20 07:51:50;;;;;;;11.43;3.67;;;27.70;51.90;;;;;;4134623;28;20057;-81
2022/07/20 07:53:51;;;;;;;9.25;3.97;;;27.80;52.20;;;;;;4133586;28;20046;-81
2022/07/20 07:55:53;;;;;;;12.27;3.55;;;27.80;52.10;;;;;;4134219;28;20506;-80
2022/07/20 07:57:54;;;;;;;10.20;4.22;;;27.90;52.40;;;;;;4132999;28;20092;-80
2022/07/20 07:59:54;;;;;;;7.55;4.13;;;27.90;52.50;;;;;;4149249;28;20080;-80
2022/07/20 08:01:55;;;;;;;8.88;3.90;;;28.00;52.50;;;;;;4130974;28;20061;-80
2022/07/20 08:03:56;;;;;;;16.17;4.10;;;28.10;52.60;;;;;;4116668;28;20086;-80
2022/07/20 08:05:57;;;;;;;8.95;3.97;;;28.10;52.60;;;;;;4135659;28;20407;-81
2022/07/20 08:08:04;;;;;;;16.88;4.82;;;28.20;53.10;;;;;;4135473;28;20092;-80
2022/07/20 08:10:05;;;;;;;13.25;4.65;;;28.20;53.20;;;;;;4134357;28;20446;-80
2022/07/20 08:12:06;;;;;;;8.48;4.78;;;28.40;53.60;;;;;;4133752;28;20038;-81
2022/07/20 08:14:07;;;;;;;7.72;4.47;;;28.40;53.90;;;;;;4134160;28;20509;-80
2022/07/20 08:16:08;;;;;;;11.32;5.38;;;28.40;54.40;;;;;;4135199;28;20407;-80
2022/07/20 08:18:10;;;;;;;12.00;5.13;;;28.50;54.70;;;;;;4135455;28;20403;-79
2022/07/20 08:20:12;;;;;;;8.48;5.18;;;28.50;54.60;;;;;;4134860;28;20502;-80
2022/07/20 08:22:13;;;;;;;8.55;5.03;;;28.50;54.80;;;;;;4118156;28;20527;-81
2022/07/20 08:24:16;;;;;;;11.68;5.85;;;28.60;55.30;;;;;;4135039;28;20092;-80
2022/07/20 08:26:16;;;;;;;9.90;5.30;;;28.50;56.10;;;;;;4134510;28;20057;-82
2022/07/20 08:28:21;;;;;;;10.57;5.20;;;28.50;56.10;;;;;;4132214;28;20074;-80
2022/07/20 08:30:23;;;;;;;11.57;5.72;;;28.60;56.60;;;;;;4125285;28;20433;-81
2022/07/20 08:32:25;;;;;;;12.93;6.47;;;28.60;56.70;;;;;;4133761;28;20121;-81
2022/07/20 08:34:25;;;;;;;14.93;7.20;;;28.60;56.70;;;;;;4133786;28;20074;-81
2022/07/20 08:36:26;;;;;;;12.57;6.18;;;28.70;56.80;;;;;;4130203;28;20105;-80
2022/07/20 08:38:27;;;;;;;16.10;6.95;;;28.80;57.40;;;;;;4132429;28;20065;-81
2022/07/20 08:40:29;;;;;;;16.33;6.75;;;28.80;57.40;;;;;;4133146;28;20415;-82
2022/07/20 08:42:30;;;;;;;12.65;6.63;;;28.80;57.80;;;;;;4133406;28;20542;-81
2022/07/20 08:44:31;;;;;;;17.35;6.82;;;28.90;58.50;;;;;;4115961;28;20113;-81
2022/07/20 08:46:34;;;;;;;15.00;6.50;;;29.00;58.10;;;;;;4133325;28;20141;-81
2022/07/20 08:48:35;;;;;;;18.25;7.15;;;29.10;58.30;;;;;;4133361;28;20133;-81
2022/07/20 08:50:36;;;;;;;15.38;7.63;;;29.30;58.40;;;;;;4133081;28;20050;-81
2022/07/20 08:52:37;;;;;;;17.88;7.15;;;29.40;58.30;;;;;;4115336;28;20431;-81
2022/07/20 08:54:38;;;;;;;16.48;7.22;;;29.50;58.60;;;;;;4132948;28;20077;-81
2022/07/20 08:56:39;;;;;;;14.60;8.25;;;29.50;58.80;;;;;;4133025;28;20497;-81
2022/07/20 08:58:41;;;;;;;17.02;9.45;;;29.60;59.00;;;;;;4114987;28;20091;-81
2022/07/20 09:00:43;;;;;;;17.02;9.10;;;29.50;59.20;;;;;;4133039;28;20090;-82
2022/07/20 09:02:55;;;;;;;19.08;9.80;;;29.60;59.40;;;;;;4115747;28;20090;-81
2022/07/20 09:04:57;;;;;;;23.55;10.10;;;29.60;60.10;;;;;;4132742;28;20055;-81
2022/07/20 09:06:58;;;;;;;19.40;10.23;;;29.50;59.80;;;;;;4132940;28;20065;-81
2022/07/20 09:09:00;;;;;;;20.67;10.20;;;29.50;60.60;;;;;;4133067;28;20050;-81
2022/07/20 09:11:04;;;;;;;17.00;10.23;;;29.70;60.70;;;;;;4132910;28;20405;-81
2022/07/20 09:13:07;;;;;;;27.17;11.25;;;29.90;60.60;;;;;;4115642;28;20149;-82
2022/07/20 09:15:15;;;;;;;20.23;11.10;;;30.00;60.60;;;;;;4133250;28;20064;-81
2022/07/20 09:17:25;;;;;;;22.80;11.32;;;30.10;60.80;;;;;;4132870;28;20089;-82
2022/07/20 09:19:27;;;;;;;26.05;12.77;;;30.00;61.40;;;;;;4132711;28;20042;-82
2022/07/20 09:21:29;;;;;;;27.40;11.95;;;30.00;61.20;;;;;;4144372;28;20495;-82
2022/07/20 09:23:33;;;;;;;26.23;12.65;;;30.00;61.70;;;;;;4125842;28;20100;-82
2022/07/20 09:25:35;;;;;;;18.95;11.73;;;30.00;62.00;;;;;;4133036;28;20438;-81
2022/07/20 09:27:36;;;;;;;23.30;12.65;;;29.90;62.00;;;;;;4115253;28;20134;-82
2022/07/20 09:29:37;;;;;;;23.05;12.38;;;30.00;62.20;;;;;;4132709;28;20050;-82
2022/07/20 09:31:39;;;;;;;20.02;11.65;;;30.00;62.50;;;;;;4132980;28;20117;-82
2022/07/20 09:33:40;;;;;;;33.28;14.23;;;29.90;62.50;;;;;;4133104;28;20747;-82
2022/07/20 09:35:47;;;;;;;23.35;13.30;;;30.10;62.50;;;;;;4132263;28;20049;-86
2022/07/20 09:37:48;;;;;;;22.02;13.23;;;30.10;64.00;;;;;;4132380;28;20253;-86
2022/07/20 09:40:04;;;;;;;23.63;13.32;;;30.00;63.00;;;;;;4131920;28;20487;-86
2022/07/20 09:42:05;;;;;;;21.02;12.57;;;30.00;63.30;;;;;;4132949;28;20046;-83
2022/07/20 09:44:07;;;;;;;27.15;13.88;;;30.00;63.00;;;;;;4132715;28;20529;-84
2022/07/20 09:46:10;;;;;;;23.63;12.95;;;30.10;63.20;;;;;;4132762;28;20054;-84
2022/07/20 09:48:12;;;;;;;28.45;13.77;;;30.10;63.40;;;;;;4132401;28;20487;-85
2022/07/20 09:50:30;;;;;;;23.45;13.27;;;30.10;63.60;;;;;;4132332;28;20462;-87
2022/07/20 09:52:33;;;;;;;22.55;13.40;;;30.20;63.70;;;;;;4113874;28;20420;-85
2022/07/20 09:54:33;;;;;;;22.27;14.20;;;30.00;63.60;;;;;;4098886;29;20043;-84
2022/07/20 09:56:37;;;;;;;21.95;14.50;;;30.00;63.80;;;;;;4114997;28;20123;-84
2022/07/20 09:58:38;;;;;;;23.63;12.80;;;30.00;64.00;;;;;;4132470;28;20487;-83
2022/07/20 10:00:39;;;;;;;26.77;14.60;;;30.10;64.00;;;;;;4131978;28;20129;-83
2022/07/20 10:02:41;;;;;;;27.33;13.52;;;30.00;63.70;;;;;;4132134;28;20050;-83
2022/07/20 10:04:46;;;;;;;29.63;13.77;;;29.90;63.90;;;;;;4099050;29;20436;-82
2022/07/20 10:06:52;;;;;;;24.38;12.05;;;30.00;64.60;;;;;;4131483;28;20514;-82
2022/07/20 10:08:54;;;;;;;25.13;13.50;;;30.30;63.90;;;;;;4132166;28;20088;-83
2022/07/20 10:10:56;;;;;;;25.67;12.63;;;30.60;63.50;;;;;;4114660;28;20054;-81
2022/07/20 10:13:00;;;;;;;21.15;12.90;;;30.90;62.90;;;;;;4131793;28;20089;-83
2022/07/20 10:15:31;;;;;;;21.38;12.20;;;31.00;61.50;;;;;;4131596;28;20125;-83
2022/07/20 10:17:33;;;;;;;24.30;12.70;;;31.00;58.50;;;;;;4117436;28;20066;-83
2022/07/20 10:19:47;;;;;;;26.38;13.30;;;31.10;60.30;;;;;;4131170;28;20050;-81
2022/07/20 10:21:53;;;;;;;22.15;12.48;;;31.20;58.60;;;;;;4133432;28;20510;-84
2022/07/20 10:24:18;;;;;;;21.90;13.02;;;31.10;58.60;;;;;;4134587;28;20076;-82
2022/07/20 10:26:27;;;;;;;22.38;12.43;;;31.30;58.80;;;;;;4131756;28;20133;-82
2022/07/20 10:28:34;;;;;;;16.83;11.48;;;31.30;57.60;;;;;;4131992;28;20057;-82
2022/07/20 10:30:55;;;;;;;15.43;10.10;;;31.20;57.30;;;;;;4100980;29;20456;-83
2022/07/20 10:33:00;;;;;;;17.08;10.32;;;31.00;55.50;;;;;;4132804;28;20112;-83
2022/07/20 10:35:30;;;;;;;17.30;10.18;;;30.80;56.60;;;;;;4146797;28;20504;-83